Time;durP1;ratioP1;P1;durP2;ratioP2;P2;SDS_P1;SDS_P2;PMS_P1;PMS_P2;Temp;Humidity;BMP_temperature;BMP_pressure;BME280_temperature;BME280_humidity;BME280_pressure;Samples;Min_cycle;Max_cycle;Signal;HPM_P1;HPM_P2
2021/06/11 00:00:13;;;;;;;13.72;10.13;;;;;;;14.72;100.00;98889.18;1717505;82;21763;-73
2021/06/11 00:02:39;;;;;;;12.88;9.58;;;;;;;14.71;100.00;98895.86;1717924;82;21034;-74
2021/06/11 00:05:07;;;;;;;15.85;10.00;;;;;;;14.70;100.00;98895.06;1721358;82;20939;-73
2021/06/11 00:07:35;;;;;;;16.82;9.38;;;;;;;14.69;100.00;98892.08;1689230;82;21076;-73
2021/06/11 00:10:05;;;;;;;16.67;11.08;;;;;;;14.70;100.00;98903.94;1717464;82;20995;-73
2021/06/11 00:12:32;;;;;;;12.50;10.30;;;;;;;14.66;100.00;98904.42;1721861;82;22431;-74
2021/06/11 00:14:59;;;;;;;12.73;10.05;;;;;;;14.61;100.00;98905.50;1720885;82;20924;-74
2021/06/11 00:17:25;;;;;;;12.95;10.40;;;;;;;14.60;100.00;98908.62;1723700;82;21008;-74
2021/06/11 00:19:52;;;;;;;15.13;10.63;;;;;;;14.60;100.00;98910.00;1721103;82;20905;-74
2021/06/11 00:22:19;;;;;;;13.40;10.53;;;;;;;14.58;100.00;98909.55;1723991;82;21426;-74
2021/06/11 00:24:46;;;;;;;12.28;10.43;;;;;;;14.56;100.00;98910.49;1715959;82;21166;-74
2021/06/11 00:27:12;;;;;;;18.55;11.30;;;;;;;14.54;100.00;98921.31;1733736;82;20861;-74
2021/06/11 00:29:40;;;;;;;13.68;10.90;;;;;;;14.52;100.00;98919.48;1721482;82;21523;-74
2021/06/11 00:32:07;;;;;;;14.30;10.82;;;;;;;14.51;100.00;98918.47;1734818;82;20931;-74
2021/06/11 00:34:33;;;;;;;16.25;10.93;;;;;;;14.49;100.00;98920.20;1727063;82;20956;-74
2021/06/11 00:36:59;;;;;;;21.65;11.10;;;;;;;14.46;100.00;98918.16;1719101;82;21116;-74
2021/06/11 00:39:26;;;;;;;16.05;10.40;;;;;;;14.44;100.00;98918.31;1711271;82;21683;-74
2021/06/11 00:41:52;;;;;;;13.80;10.28;;;;;;;14.43;100.00;98919.48;1721716;82;20967;-74
2021/06/11 00:44:18;;;;;;;16.62;11.70;;;;;;;14.41;100.00;98919.00;1726362;81;21070;-74
2021/06/11 00:46:45;;;;;;;16.02;11.55;;;;;;;14.40;100.00;98922.92;1716681;82;21051;-74
2021/06/11 00:49:12;;;;;;;14.80;11.18;;;;;;;14.41;100.00;98921.76;1718797;82;21411;-74
2021/06/11 00:51:39;;;;;;;18.32;11.12;;;;;;;14.42;100.00;98917.88;1729529;82;20856;-74
2021/06/11 00:54:05;;;;;;;14.35;11.38;;;;;;;14.39;100.00;98917.97;1731437;82;20916;-74
2021/06/11 00:56:34;;;;;;;13.32;11.15;;;;;;;14.36;100.00;98920.06;1728948;82;21005;-75
2021/06/11 00:59:00;;;;;;;17.95;11.00;;;;;;;14.34;100.00;98923.77;1735883;82;20873;-74
2021/06/11 01:01:27;;;;;;;15.03;11.22;;;;;;;14.32;100.00;98930.80;1730055;82;21132;-75
2021/06/11 01:03:53;;;;;;;16.17;11.78;;;;;;;14.30;100.00;98927.01;1701655;82;20996;-74
2021/06/11 01:06:20;;;;;;;15.10;10.28;;;;;;;14.31;100.00;98925.85;1718030;82;20971;-74
2021/06/11 01:08:47;;;;;;;17.62;11.70;;;;;;;14.29;100.00;98918.50;1720169;81;20967;-75
2021/06/11 01:11:13;;;;;;;13.60;10.93;;;;;;;14.29;100.00;98919.88;1731768;81;21518;-74
2021/06/11 01:13:41;;;;;;;12.63;9.75;;;;;;;14.31;100.00;98917.57;1726975;81;20853;-74
2021/06/11 01:16:07;;;;;;;13.70;10.48;;;;;;;14.33;100.00;98915.83;1720525;82;21004;-74
2021/06/11 01:18:35;;;;;;;16.52;11.15;;;;;;;14.34;100.00;98917.44;1720568;81;20897;-74
2021/06/11 01:21:01;;;;;;;12.20;9.80;;;;;;;14.36;100.00;98917.89;1648021;82;21025;-74
2021/06/11 01:23:50;;;;;;;16.87;10.65;;;;;;;14.36;100.00;98922.83;1731776;81;20893;-74
2021/06/11 01:26:29;;;;;;;13.25;10.53;;;;;;;14.35;100.00;98916.28;1735040;81;21958;-74
2021/06/11 01:29:06;;;;;;;13.40;10.55;;;;;;;14.35;100.00;98918.46;1721279;82;20939;-75
2021/06/11 01:31:39;;;;;;;14.18;10.45;;;;;;;14.36;100.00;98918.69;1725950;82;21434;-74
2021/06/11 01:34:18;;;;;;;13.62;10.70;;;;;;;14.36;100.00;98924.20;1718450;82;21302;-75
2021/06/11 01:36:47;;;;;;;11.63;9.98;;;;;;;14.35;100.00;98925.36;1711580;83;21117;-74
2021/06/11 01:39:15;;;;;;;18.80;11.53;;;;;;;14.36;100.00;98920.64;1713318;82;21811;-75
2021/06/11 01:41:42;;;;;;;14.10;10.35;;;;;;;14.35;100.00;98926.75;1728423;81;21467;-75
2021/06/11 01:44:09;;;;;;;16.40;10.50;;;;;;;14.33;100.00;98928.26;1713715;82;20884;-75
2021/06/11 01:46:37;;;;;;;22.40;10.58;;;;;;;14.33;100.00;98926.30;1719969;81;20904;-75
2021/06/11 01:49:04;;;;;;;15.08;10.45;;;;;;;14.33;100.00;98929.64;1724135;82;21035;-74
2021/06/11 01:51:31;;;;;;;13.53;10.38;;;;;;;14.34;100.00;98922.96;1697964;83;21103;-74
2021/06/11 01:53:59;;;;;;;12.28;10.80;;;;;;;14.35;100.00;98928.13;1702391;81;20936;-75
2021/06/11 01:56:26;;;;;;;16.45;10.35;;;;;;;14.34;100.00;98933.42;1726858;82;20940;-75
2021/06/11 01:58:52;;;;;;;13.62;10.13;;;;;;;14.34;100.00;98932.05;1729167;81;20942;-75
2021/06/11 02:01:20;;;;;;;20.75;10.55;;;;;;;14.33;100.00;98933.20;1724686;82;21430;-75
2021/06/11 02:03:47;;;;;;;12.45;10.43;;;;;;;14.33;100.00;98931.02;1717863;82;21816;-74
2021/06/11 02:06:16;;;;;;;12.18;10.23;;;;;;;14.32;100.00;98930.80;1725782;81;20971;-74
2021/06/11 02:08:50;;;;;;;12.20;10.45;;;;;;;14.33;100.00;98930.44;1731210;82;20860;-74
2021/06/11 02:11:16;;;;;;;14.07;9.83;;;;;;;14.32;100.00;98934.36;1712123;81;21079;-75
2021/06/11 02:13:46;;;;;;;19.62;10.58;;;;;;;14.31;100.00;98934.72;1723885;81;21019;-75
2021/06/11 02:16:13;;;;;;;15.20;10.50;;;;;;;14.30;100.00;98931.15;1720965;82;21133;-75
2021/06/11 02:18:42;;;;;;;12.95;11.03;;;;;;;14.30;100.00;98931.15;1729028;82;21042;-74
2021/06/11 02:21:09;;;;;;;15.40;10.63;;;;;;;14.31;100.00;98936.89;1725082;81;21461;-74
2021/06/11 02:23:35;;;;;;;13.58;10.32;;;;;;;14.35;100.00;98936.98;1729067;81;20967;-74
2021/06/11 02:26:04;;;;;;;12.18;9.63;;;;;;;14.36;100.00;98936.63;1730299;81;20950;-74
2021/06/11 02:28:30;;;;;;;14.65;9.80;;;;;;;14.37;100.00;98938.81;1730738;81;21124;-74
2021/06/11 02:30:58;;;;;;;15.45;10.08;;;;;;;14.37;100.00;98938.23;1719844;82;20889;-74
2021/06/11 02:33:25;;;;;;;12.53;9.50;;;;;;;14.38;100.00;98938.46;1728347;81;20932;-74
2021/06/11 02:35:51;;;;;;;11.83;9.98;;;;;;;14.38;100.00;98939.84;1726523;81;20967;-74
2021/06/11 02:38:18;;;;;;;11.50;9.68;;;;;;;14.39;100.00;98937.30;1734398;81;21478;-74
2021/06/11 02:40:44;;;;;;;14.07;9.95;;;;;;;14.40;100.00;98940.87;1731384;81;21121;-74
2021/06/11 02:43:13;;;;;;;13.60;10.48;;;;;;;14.40;100.00;98940.29;1737074;81;21039;-74
2021/06/11 02:45:58;;;;;;;9.73;7.90;;;;;;;14.42;100.00;98942.15;1719758;82;21054;-73
2021/06/11 02:48:35;;;;;;;13.70;10.48;;;;;;;14.45;100.00;98937.27;1716576;82;20948;-73
2021/06/11 02:51:15;;;;;;;10.93;9.48;;;;;;;14.48;100.00;98942.08;1712316;82;21511;-72
2021/06/11 02:53:41;;;;;;;15.58;10.58;;;;;;;14.51;100.00;98944.13;1731653;81;21578;-72
2021/06/11 02:56:13;;;;;;;13.13;10.48;;;;;;;14.53;100.00;98941.81;1728871;81;21502;-73
2021/06/11 02:58:46;;;;;;;13.90;10.68;;;;;;;14.56;100.00;98942.25;1725123;81;20896;-73
2021/06/11 03:01:13;;;;;;;15.10;10.32;;;;;;;14.57;100.00;98946.05;1724072;81;20932;-73
2021/06/11 03:03:41;;;;;;;11.35;9.48;;;;;;;14.58;100.00;98941.32;1724970;81;21066;-73
2021/06/11 03:06:09;;;;;;;17.02;10.72;;;;;;;14.62;100.00;98946.35;1721829;81;21513;-73
2021/06/11 03:08:38;;;;;;;15.05;10.85;;;;;;;14.66;100.00;98945.86;1718151;81;20896;-74
2021/06/11 03:11:12;;;;;;;12.55;10.50;;;;;;;14.70;100.00;98949.52;1714089;82;20931;-73
2021/06/11 03:13:41;;;;;;;17.55;10.98;;;;;;;14.73;100.00;98950.19;1724930;82;21033;-73
2021/06/11 03:16:07;;;;;;;14.53;10.82;;;;;;;14.77;100.00;98951.07;1709780;82;21615;-74
2021/06/11 03:18:38;;;;;;;12.03;9.33;;;;;;;14.82;100.00;98956.33;1718520;82;21142;-72
2021/06/11 03:21:15;;;;;;;18.60;11.33;;;;;;;14.83;100.00;98955.97;1724445;82;21172;-73
2021/06/11 03:23:56;;;;;;;12.30;10.13;;;;;;;14.86;100.00;98948.92;1730334;81;20907;-73
2021/06/11 03:26:27;;;;;;;11.68;10.28;;;;;;;14.88;100.00;98949.37;1723975;81;20912;-74
2021/06/11 06:16:31;;;;;;;12.58;8.20;;;;;;;17.38;97.14;99005.56;1728673;82;20915;-75
2021/06/11 06:18:58;;;;;;;12.00;7.97;;;;;;;17.49;97.93;99005.14;1734536;81;20974;-77
2021/06/11 06:21:24;;;;;;;10.70;7.30;;;;;;;17.65;97.76;99011.34;1732079;81;21202;-76
2021/06/11 06:23:51;;;;;;;13.08;7.67;;;;;;;17.81;97.17;99015.33;1722588;82;21383;-75
2021/06/11 06:26:18;;;;;;;12.63;7.60;;;;;;;17.96;96.53;99013.50;1715261;82;21006;-78
2021/06/11 06:28:45;;;;;;;9.28;8.03;;;;;;;18.08;94.05;99010.48;1726392;82;21044;-75
2021/06/11 06:31:11;;;;;;;8.65;7.10;;;;;;;18.15;92.82;99020.30;1725567;81;21070;-74
2021/06/11 06:33:38;;;;;;;7.90;7.05;;;;;;;18.19;92.05;99012.80;1735144;81;21728;-73
2021/06/11 06:36:07;;;;;;;9.65;7.12;;;;;;;18.21;91.40;99015.20;1726079;81;20919;-73
2021/06/11 06:38:33;;;;;;;7.30;6.60;;;;;;;18.28;91.87;99015.28;1723354;81;20950;-73
2021/06/11 06:41:01;;;;;;;11.22;6.97;;;;;;;18.42;90.87;99014.05;1723684;82;21000;-73
2021/06/11 06:43:28;;;;;;;10.13;6.62;;;;;;;18.56;90.22;99017.54;1725645;81;21007;-72
2021/06/11 06:45:55;;;;;;;10.45;6.67;;;;;;;18.71;90.12;99017.33;1727358;82;21109;-70
2021/06/11 06:48:22;;;;;;;8.43;6.50;;;;;;;18.81;88.94;99014.45;1730650;82;20955;-73
2021/06/11 06:50:48;;;;;;;8.03;6.08;;;;;;;18.85;87.12;99014.48;1730251;82;21554;-73
2021/06/11 06:53:14;;;;;;;9.48;6.65;;;;;;;18.89;86.85;99015.31;1719842;82;20943;-70
2021/06/11 06:55:41;;;;;;;8.88;6.08;;;;;;;18.94;86.44;99014.95;1736099;80;21423;-70
2021/06/11 06:58:07;;;;;;;6.85;6.10;;;;;;;18.97;86.31;99019.16;1714302;83;21096;-74
2021/06/11 07:00:34;;;;;;;9.10;5.35;;;;;;;18.98;86.13;99016.59;1718565;83;21006;-70
2021/06/11 07:03:00;;;;;;;5.90;5.30;;;;;;;18.97;84.97;99021.94;1711460;82;21221;-73
2021/06/11 07:05:27;;;;;;;5.53;5.03;;;;;;;18.95;84.61;99014.58;1719395;82;21025;-71
2021/06/11 07:07:53;;;;;;;6.00;5.30;;;;;;;18.98;84.20;99017.98;1730714;82;21720;-71
2021/06/11 07:10:20;;;;;;;9.58;5.90;;;;;;;18.99;83.47;99015.41;1731713;81;21033;-70
2021/06/11 07:12:47;;;;;;;9.40;5.90;;;;;;;19.01;83.36;99014.42;1731987;82;21530;-71
2021/06/11 07:15:13;;;;;;;13.03;6.72;;;;;;;19.06;83.91;99008.48;1738787;81;20904;-71
2021/06/11 07:17:40;;;;;;;6.80;5.30;;;;;;;19.08;82.02;99016.44;1738239;81;21095;-71
2021/06/11 07:20:09;;;;;;;7.47;5.40;;;;;;;19.08;83.05;99016.44;1729647;82;21197;-72
2021/06/11 07:22:36;;;;;;;8.65;5.55;;;;;;;19.14;83.54;99021.27;1722339;81;21805;-70
2021/06/11 07:25:05;;;;;;;9.35;5.90;;;;;;;19.21;82.86;99012.77;1748683;81;20974;-70
2021/06/11 07:27:33;;;;;;;6.83;5.22;;;;;;;19.28;83.33;99015.59;1725141;81;21040;-70
2021/06/11 07:30:04;;;;;;;9.95;6.25;;;;;;;19.35;82.65;99016.45;1725470;82;21509;-68
2021/06/11 07:32:30;;;;;;;9.30;5.70;;;;;;;19.49;81.67;99017.73;1706827;82;21032;-70
2021/06/11 07:34:57;;;;;;;9.18;5.17;;;;;;;19.60;81.77;99015.26;1724217;82;22007;-70
2021/06/11 07:37:23;;;;;;;8.08;5.65;;;;;;;19.73;81.17;99012.91;1728430;82;21570;-70
2021/06/11 07:39:49;;;;;;;7.42;4.90;;;;;;;19.87;80.40;99013.58;1735129;81;21499;-70
2021/06/11 07:42:16;;;;;;;10.85;5.28;;;;;;;20.01;79.05;99014.45;1731575;82;21083;-70
2021/06/11 07:44:42;;;;;;;7.05;5.12;;;;;;;20.12;77.81;99020.06;1725594;82;21169;-70
2021/06/11 07:47:09;;;;;;;6.70;5.05;;;;;;;20.20;76.95;99014.72;1733025;82;21079;-71
2021/06/11 07:49:36;;;;;;;6.35;5.17;;;;;;;20.23;77.46;99006.94;1706009;82;21008;-71
2021/06/11 07:52:03;;;;;;;11.15;4.90;;;;;;;20.39;77.73;99017.17;1703019;81;21030;-70
2021/06/11 07:54:29;;;;;;;5.20;4.35;;;;;;;20.49;75.90;99014.22;1710047;82;21088;-72
2021/06/11 07:56:56;;;;;;;5.60;4.17;;;;;;;20.64;76.21;99021.42;1708860;81;21162;-70
2021/06/11 07:59:23;;;;;;;5.25;4.35;;;;;;;20.78;74.28;99019.25;1700217;82;21130;-69
2021/06/11 08:01:49;;;;;;;6.72;4.33;;;;;;;20.89;74.42;99015.05;1679020;83;21103;-70
2021/06/11 08:04:16;;;;;;;8.43;5.10;;;;;;;21.01;74.54;99017.45;1686509;84;21040;-68
2021/06/11 08:06:44;;;;;;;7.50;5.22;;;;;;;21.16;73.22;99014.06;1686867;83;21008;-69
2021/06/11 08:09:10;;;;;;;5.70;4.37;;;;;;;21.28;71.21;99018.67;1710895;83;21024;-68
2021/06/11 08:11:37;;;;;;;6.65;4.90;;;;;;;21.36;71.66;99020.86;1698818;83;21072;-70
2021/06/11 08:14:04;;;;;;;9.30;4.87;;;;;;;21.47;72.25;99025.01;1695009;83;21102;-69
2021/06/11 08:16:30;;;;;;;7.92;4.45;;;;;;;21.56;71.30;99020.61;1691165;83;21133;-68
2021/06/11 08:18:57;;;;;;;6.37;4.92;;;;;;;21.69;69.77;99016.19;1689391;83;21514;-69
2021/06/11 08:21:24;;;;;;;5.37;4.40;;;;;;;21.75;70.07;99027.15;1699163;83;21022;-69
2021/06/11 08:23:52;;;;;;;5.67;4.70;;;;;;;21.77;67.45;99021.16;1704657;83;21106;-69
2021/06/11 08:26:19;;;;;;;8.48;4.42;;;;;;;21.79;67.34;99020.75;1697585;83;21515;-71
2021/06/11 08:28:47;;;;;;;5.28;4.40;;;;;;;21.79;68.55;99029.94;1696007;83;21020;-71
2021/06/11 08:31:13;;;;;;;6.62;4.85;;;;;;;21.80;68.37;99020.95;1692713;83;21022;-70
2021/06/11 08:33:42;;;;;;;5.75;4.37;;;;;;;21.88;69.02;99026.12;1704689;83;21056;-71
2021/06/11 08:36:08;;;;;;;4.78;4.17;;;;;;;22.26;68.72;99022.19;1699282;83;21147;-71
2021/06/11 08:38:35;;;;;;;7.25;4.50;;;;;;;22.57;67.64;99021.80;1702269;83;21029;-70
2021/06/11 08:41:02;;;;;;;5.42;4.17;;;;;;;22.85;66.49;99023.05;1694515;83;21542;-69
2021/06/11 08:43:28;;;;;;;5.40;3.83;;;;;;;23.12;66.00;99014.02;1693063;83;21022;-69
2021/06/11 08:45:55;;;;;;;7.15;4.42;;;;;;;23.35;64.67;99019.20;1681434;84;21057;-69
2021/06/11 08:48:22;;;;;;;5.87;4.25;;;;;;;23.55;62.87;99008.25;1701700;83;21130;-70
2021/06/11 08:50:48;;;;;;;5.12;4.62;;;;;;;23.74;62.83;99013.03;1674718;84;21045;-69
2021/06/11 08:53:17;;;;;;;5.45;4.28;;;;;;;23.76;62.08;99013.41;1718634;81;21545;-69
2021/06/11 08:55:44;;;;;;;4.35;3.95;;;;;;;23.71;61.66;99014.05;1730773;81;21064;-77
2021/06/11 08:58:10;;;;;;;7.65;4.12;;;;;;;23.92;61.96;99008.81;1722146;81;21035;-70
2021/06/11 09:00:36;;;;;;;5.62;4.12;;;;;;;24.31;60.67;99001.33;1724839;81;21105;-71
2021/06/11 09:03:34;;;;;;;3.60;3.30;;;;;;;24.52;60.11;99006.45;1724755;82;21043;-71
2021/06/11 09:06:05;;;;;;;2.87;2.50;;;;;;;24.56;57.92;99005.19;1726927;82;21083;-71
2021/06/11 09:08:32;;;;;;;3.77;3.37;;;;;;;24.54;59.60;99004.02;1727974;82;21284;-74
2021/06/11 09:11:18;;;;;;;3.80;3.40;;;;;;;24.86;60.48;99002.91;1709798;82;22210;-72
2021/06/11 09:13:54;;;;;;;7.62;3.67;;;;;;;25.23;59.40;99008.95;1676799;82;21149;-72
2021/06/11 09:16:24;;;;;;;5.75;3.47;;;;;;;25.53;56.74;98998.77;1728125;82;21138;-73
2021/06/11 09:18:53;;;;;;;10.58;3.45;;;;;;;25.79;55.76;99006.34;1729183;82;21484;-72
2021/06/11 09:21:38;;;;;;;3.75;2.95;;;;;;;25.92;55.16;99002.27;1724981;81;20999;-71
2021/06/11 09:24:24;;;;;;;6.40;3.30;;;;;;;26.09;55.49;98995.47;1738029;82;21010;-72
2021/06/11 09:27:04;;;;;;;4.87;3.47;;;;;;;26.29;53.85;98998.27;1740618;82;21067;-72
2021/06/11 09:29:43;;;;;;;7.58;3.17;;;;;;;26.16;52.45;99004.38;1724999;82;20976;-71
2021/06/11 09:32:28;;;;;;;7.97;3.80;;;;;;;25.97;53.43;99001.16;1714572;82;21063;-74
2021/06/11 09:34:58;;;;;;;8.40;3.00;;;;;;;25.87;52.94;99001.38;1725860;82;20908;-72
2021/06/11 09:37:30;;;;;;;4.03;3.22;;;;;;;25.68;51.95;98998.72;1728335;81;21095;-75
2021/06/11 09:39:58;;;;;;;;;;;;;;;25.46;53.04;98997.50;1723239;82;22214;-72
2021/06/11 09:42:27;;;;;;;6.47;3.20;;;;;;;25.16;52.11;98998.45;1720324;81;20465;-72
2021/06/11 09:45:07;;;;;;;5.55;3.25;;;;;;;24.95;51.84;98996.75;1734313;81;21128;-73
2021/06/11 09:47:43;;;;;;;5.67;3.42;;;;;;;24.86;52.34;98995.89;1733398;82;20975;-72
2021/06/11 09:50:19;;;;;;;4.92;3.75;;;;;;;24.94;53.52;98992.36;1727141;82;21127;-72
2021/06/11 09:53:08;;;;;;;7.20;3.27;;;;;;;25.11;52.73;98994.72;1728281;82;21160;-72
2021/06/11 09:55:40;;;;;;;4.45;3.50;;;;;;;24.88;51.66;98992.05;1726432;82;21038;-71
2021/06/11 09:58:28;;;;;;;4.37;3.60;;;;;;;24.51;53.93;98997.24;1727639;81;21077;-74
2021/06/11 10:01:01;;;;;;;4.00;3.30;;;;;;;24.53;54.69;98998.22;1719212;82;20951;-71
2021/06/11 10:03:34;;;;;;;4.58;2.77;;;;;;;24.88;52.73;98989.84;1721397;81;21099;-73
2021/06/11 10:06:04;;;;;;;6.15;3.10;;;;;;;25.28;51.63;98992.22;1736723;82;21769;-72
2021/06/11 10:08:31;;;;;;;3.87;3.22;;;;;;;25.70;50.19;98985.03;1728266;82;21553;-72
2021/06/11 10:10:59;;;;;;;3.30;3.00;;;;;;;26.07;49.65;98986.67;1737528;82;21487;-72
2021/06/11 10:13:26;;;;;;;6.28;2.90;;;;;;;26.39;48.76;98990.23;1725193;81;21012;-72
2021/06/11 10:15:55;;;;;;;7.25;4.05;;;;;;;26.65;47.86;98983.58;1729053;82;21685;-71
2021/06/11 10:18:21;;;;;;;5.17;3.20;;;;;;;26.72;47.35;98984.64;1710300;81;21187;-73
2021/06/11 10:20:48;;;;;;;4.90;3.02;;;;;;;26.74;46.74;98986.41;1708860;82;20955;-72
2021/06/11 10:23:18;;;;;;;4.35;3.20;;;;;;;26.79;47.15;98975.41;1707298;83;21489;-72
2021/06/11 10:25:46;;;;;;;5.25;3.45;;;;;;;26.74;47.04;98979.37;1708762;83;21557;-72
2021/06/11 10:28:16;;;;;;;7.30;3.45;;;;;;;26.57;48.60;98982.16;1709314;83;21059;-71
2021/06/11 10:30:43;;;;;;;6.70;3.27;;;;;;;26.35;48.35;98981.70;1716379;83;21112;-71
2021/06/11 10:33:09;;;;;;;7.42;3.60;;;;;;;26.15;48.57;98975.45;1707982;83;21502;-72
2021/06/11 10:35:39;;;;;;;7.15;3.30;;;;;;;26.11;47.81;98975.34;1706208;83;20904;-72
2021/06/11 10:38:07;;;;;;;3.52;2.98;;;;;;;26.29;47.96;98975.76;1709649;83;21431;-72
2021/06/11 10:40:40;;;;;;;4.90;3.00;;;;;;;26.60;46.26;98972.05;1692166;83;20991;-72
2021/06/11 10:43:35;;;;;;;4.42;3.12;;;;;;;26.84;46.94;98976.30;1718222;82;21082;-72
2021/06/11 10:46:02;;;;;;;3.20;2.90;;;;;;;27.13;46.83;98975.62;1713186;83;21063;-72
2021/06/11 10:49:11;;;;;;;4.20;3.33;;;;;;;27.45;44.98;98967.10;1710101;83;21109;-72
2021/06/11 10:51:47;;;;;;;2.87;2.60;;;;;;;27.57;44.47;98963.55;1708666;83;21536;-72
2021/06/11 10:54:27;;;;;;;7.12;3.00;;;;;;;27.73;43.75;98953.50;1711738;83;21046;-71
2021/06/11 10:57:02;;;;;;;3.37;3.00;;;;;;;27.88;41.90;98948.38;1710593;83;21139;-71
2021/06/11 10:59:39;;;;;;;4.87;2.75;;;;;;;28.09;41.99;98946.97;1710864;83;20981;-72
2021/06/11 11:02:07;;;;;;;4.42;2.92;;;;;;;28.12;42.78;98943.25;1711098;83;21517;-72
2021/06/11 11:04:39;;;;;;;7.17;3.45;;;;;;;27.97;42.21;98946.32;1708809;83;21406;-72
2021/06/11 11:07:33;;;;;;;5.60;3.12;;;;;;;27.57;42.96;98952.89;1707840;83;21018;-72
2021/06/11 11:10:06;;;;;;;7.08;3.52;;;;;;;27.00;43.84;98956.45;1715873;83;21554;-71
2021/06/11 11:13:01;;;;;;;14.28;4.03;;;;;;;26.21;47.45;98974.33;1711497;82;21082;-72
2021/06/11 11:15:38;;;;;;;4.50;3.05;;;;;;;25.30;52.32;98983.55;1715169;82;21545;-73
2021/06/11 11:18:09;;;;;;;8.03;3.70;;;;;;;24.18;55.56;98986.27;1705928;82;21083;-72
2021/06/11 11:20:37;;;;;;;12.07;3.83;;;;;;;23.38;59.11;98992.38;1716471;82;20973;-74
2021/06/11 11:23:10;;;;;;;6.22;3.87;;;;;;;22.67;61.86;98986.76;1715379;82;21380;-73
2021/06/11 11:25:37;;;;;;;4.40;2.77;;;;;;;22.00;63.73;98974.55;1728772;82;21014;-73
2021/06/11 11:28:06;;;;;;;4.40;3.10;;;;;;;21.42;66.12;98955.02;1728216;82;20983;-74
2021/06/11 11:30:32;;;;;;;4.72;3.35;;;;;;;21.01;68.77;98959.65;1721103;82;21052;-72
2021/06/11 11:33:00;;;;;;;12.05;7.87;;;;;;;20.69;70.36;98956.09;1720862;82;21509;-73
2021/06/11 11:35:31;;;;;;;11.78;8.65;;;;;;;20.53;72.20;98950.89;1730846;81;22106;-73
2021/06/11 11:37:59;;;;;;;18.80;9.77;;;;;;;20.52;73.87;98957.66;1732182;82;21578;-72
2021/06/11 11:40:26;;;;;;;13.72;9.00;;;;;;;20.50;74.85;98956.47;1737077;81;20998;-73
2021/06/11 11:42:54;;;;;;;10.18;5.28;;;;;;;20.51;75.79;98953.28;1731856;82;21049;-72
2021/06/11 11:45:27;;;;;;;7.20;3.92;;;;;;;20.68;76.16;98953.10;1713117;81;21006;-70
2021/06/11 11:48:00;;;;;;;5.47;3.67;;;;;;;20.90;76.91;98953.27;1715757;82;21547;-70
2021/06/11 11:50:28;;;;;;;7.40;3.58;;;;;;;21.16;77.51;98946.48;1717584;82;21075;-71
2021/06/11 11:52:55;;;;;;;5.30;3.22;;;;;;;21.38;76.25;98950.83;1727230;81;21156;-71
2021/06/11 11:55:22;;;;;;;3.15;2.85;;;;;;;21.82;77.17;98950.90;1727623;82;21017;-72
2021/06/11 11:57:48;;;;;;;3.98;3.30;;;;;;;22.43;76.35;98949.98;1721801;82;21074;-76
2021/06/11 12:00:16;;;;;;;5.15;3.65;;;;;;;23.12;72.42;98941.23;1730340;82;21788;-77
2021/06/11 12:02:43;;;;;;;5.80;3.25;;;;;;;23.73;68.38;98938.58;1735711;82;20984;-73
2021/06/11 12:05:10;;;;;;;5.67;2.92;;;;;;;24.28;66.82;98941.86;1736896;82;21602;-73
2021/06/11 12:07:37;;;;;;;3.83;3.20;;;;;;;24.84;63.00;98935.17;1736540;82;21043;-74
2021/06/11 12:10:04;;;;;;;6.25;3.10;;;;;;;25.31;60.83;98930.97;1734851;82;21178;-77
2021/06/11 12:12:31;;;;;;;4.55;3.15;;;;;;;25.78;58.80;98923.84;1740097;82;21544;-72
2021/06/11 12:14:57;;;;;;;5.28;3.45;;;;;;;26.20;58.82;98920.70;1732255;82;21090;-73
2021/06/11 12:17:23;;;;;;;6.58;3.30;;;;;;;26.58;56.95;98920.41;1693749;83;21073;-73
2021/06/11 12:19:51;;;;;;;3.98;3.22;;;;;;;26.94;55.85;98923.14;1710611;82;21608;-77
2021/06/11 12:22:17;;;;;;;6.10;3.30;;;;;;;27.28;55.48;98916.23;1709241;82;21494;-77
2021/06/11 12:24:44;;;;;;;4.47;3.10;;;;;;;27.50;52.60;98908.78;1713840;82;21498;-75
2021/06/11 12:27:10;;;;;;;5.12;3.33;;;;;;;27.55;51.62;98913.08;1712278;83;21480;-74
2021/06/11 12:29:37;;;;;;;3.12;2.80;;;;;;;27.59;52.00;98910.37;1711369;83;20942;-74
2021/06/11 12:32:04;;;;;;;5.05;2.67;;;;;;;27.74;48.50;98904.29;1706017;81;21179;-74
2021/06/11 12:34:31;;;;;;;3.98;2.67;;;;;;;27.75;50.95;98905.88;1708684;83;21022;-75
2021/06/11 12:36:57;;;;;;;6.15;2.80;;;;;;;27.87;50.78;98912.16;1705065;82;21495;-75
2021/06/11 12:39:24;;;;;;;3.05;2.37;;;;;;;28.06;49.18;98900.52;1706408;82;21084;-73
2021/06/11 12:41:55;;;;;;;3.65;2.75;;;;;;;28.24;48.22;98905.03;1721553;82;21068;-71
2021/06/11 12:44:22;;;;;;;2.98;2.67;;;;;;;28.36;47.34;98906.25;1716328;82;20973;-75
2021/06/11 12:46:55;;;;;;;3.95;2.50;;;;;;;28.38;47.85;98905.18;1708937;82;21091;-73
2021/06/11 12:49:24;;;;;;;3.58;3.10;;;;;;;28.49;46.33;98899.36;1707418;83;21183;-75
2021/06/11 12:51:52;;;;;;;5.45;2.70;;;;;;;28.60;43.80;98892.75;1721047;81;20984;-77
2021/06/11 12:54:19;;;;;;;3.22;2.92;;;;;;;28.59;44.13;98889.76;1735432;81;21036;-76
2021/06/11 12:56:45;;;;;;;3.58;2.77;;;;;;;28.60;46.95;98882.87;1731654;82;21522;-74
2021/06/11 12:59:12;;;;;;;6.35;3.15;;;;;;;28.82;43.97;98880.77;1693370;82;21142;-77
2021/06/11 13:01:38;;;;;;;3.67;2.52;;;;;;;28.91;45.41;98891.52;1703460;82;21167;-69
2021/06/11 13:04:05;;;;;;;9.70;3.12;;;;;;;29.01;43.56;98876.86;1727095;81;21633;-70
2021/06/11 13:06:34;;;;;;;3.45;3.10;;;;;;;29.04;46.44;98885.84;1725370;81;21000;-70
2021/06/11 13:09:01;;;;;;;6.67;3.00;;;;;;;29.25;43.02;98878.02;1713000;82;21092;-73
2021/06/11 13:11:29;;;;;;;5.12;2.98;;;;;;;29.24;42.25;98880.69;1716165;82;21885;-72
2021/06/11 13:13:55;;;;;;;4.42;3.22;;;;;;;29.21;42.49;98883.63;1723462;81;21161;-73
2021/06/11 13:16:22;;;;;;;4.12;2.87;;;;;;;29.31;44.01;98871.16;1720718;81;20920;-74
2021/06/11 13:18:49;;;;;;;2.52;2.17;;;;;;;29.52;42.77;98880.28;1704830;80;21122;-74
2021/06/11 13:21:16;;;;;;;7.97;2.75;;;;;;;29.77;42.62;98872.91;1702892;83;20928;-70
2021/06/11 13:23:44;;;;;;;5.33;2.50;;;;;;;29.83;40.50;98869.64;1726970;81;20935;-76
2021/06/11 13:26:10;;;;;;;2.85;2.50;;;;;;;29.90;38.04;98865.92;1734888;81;21824;-82
2021/06/11 13:28:37;;;;;;;3.40;2.85;;;;;;;30.05;38.88;98867.57;1714648;82;20999;-73
2021/06/11 13:31:04;;;;;;;3.80;2.62;;;;;;;30.15;39.27;98860.70;1717206;82;21192;-73
2021/06/11 13:33:30;;;;;;;6.28;2.62;;;;;;;30.10;37.47;98864.14;1714342;82;21150;-72
2021/06/11 13:36:01;;;;;;;4.67;2.50;;;;;;;30.18;38.49;98857.56;1723889;81;21058;-72
2021/06/11 13:38:26;;;;;;;4.33;2.58;;;;;;;30.41;38.49;98858.45;1723013;81;21121;-76
2021/06/11 13:40:53;;;;;;;3.08;2.52;;;;;;;30.50;37.88;98861.94;1714664;82;20960;-73
2021/06/11 13:43:19;;;;;;;3.90;2.70;;;;;;;30.50;36.65;98859.11;1707603;82;21020;-74
2021/06/11 13:45:45;;;;;;;5.75;3.05;;;;;;;30.44;38.34;98856.73;1723166;81;21451;-78
2021/06/11 13:48:11;;;;;;;7.08;2.72;;;;;;;30.40;37.78;98853.25;1718667;82;21078;-76
2021/06/11 13:50:38;;;;;;;3.92;2.52;;;;;;;30.43;36.52;98861.60;1718275;82;21148;-73
2021/06/11 13:53:05;;;;;;;4.65;2.42;;;;;;;30.51;35.04;98852.97;1722620;81;21030;-71
2021/06/11 13:55:31;;;;;;;3.75;2.30;;;;;;;30.52;34.75;98860.84;1711610;83;21022;-72
2021/06/11 13:57:58;;;;;;;2.58;2.37;;;;;;;30.24;34.63;98844.38;1690660;83;21108;-74
2021/06/11 14:00:26;;;;;;;3.00;2.02;;;;;;;30.04;34.86;98858.91;1718339;81;21526;-73
2021/06/11 14:02:54;;;;;;;2.52;2.12;;;;;;;29.87;34.56;98861.81;1695159;81;21133;-71
2021/06/11 14:05:23;;;;;;;3.25;2.62;;;;;;;29.85;35.06;98853.00;1688786;83;20954;-72
2021/06/11 14:07:52;;;;;;;2.05;1.85;;;;;;;29.86;36.74;98858.82;1699707;83;21510;-72
2021/06/11 14:10:20;;;;;;;3.75;2.22;;;;;;;29.99;35.26;98849.61;1700803;82;38799;-73
2021/06/11 14:12:46;;;;;;;3.00;2.15;;;;;;;30.05;35.77;98852.00;1698319;83;21008;-71
2021/06/11 14:15:14;;;;;;;3.65;2.40;;;;;;;30.07;35.61;98852.33;1679756;83;21474;-70
2021/06/11 14:17:41;;;;;;;8.68;2.80;;;;;;;30.21;34.49;98848.94;1704253;83;20973;-71
2021/06/11 14:20:09;;;;;;;5.03;2.40;;;;;;;30.37;34.23;98855.59;1704795;83;21168;-70
2021/06/11 14:22:36;;;;;;;5.30;2.50;;;;;;;30.23;34.17;98850.67;1706802;83;20961;-72